Dixie, Idaho
Current Conditions -  °F | °C
As of 1:35 PM on Friday 24 Oct 2014 (Local Time) from KGIC Reporting Station
Overcast Overcast  
Wind Chill: 50°   Ceiling: 800
Heat Index: 50°   Visibility: 10mi
Dew Point: 47°   Wind: 6mph
Humidity: 90%   Direction: 40°NE
Pressure: 30.1"   Gusts: NA
Location:  45.8865°N, 115.105°W
Report Text: KGIC 242035Z AUTO 04005KT 10SM BKN008 BKN055 OVC085 10/09 A3010 RMK AO1 T01000085
Loading
Personal Weather Stations






























Interactive Weather Map
Tropical Storm Tracking
New forecast layout! Learn more

10-Day Weather Forecast

Advertisements
Track Severe Weather on mobile